Главная страница
METAR-TAF:

METAR-TAF

Аэропорты :

Николаев, Украина

широта: 47-03-29N, долгота: 031-55-15E, высота над уровнем моря: 56 м

Текущие метеонаблюдения

Эта сводка был подготовлена 11 часа и 51 минут назад, в 14:00 UTC
Ветер 12 Узел от восточный
Температура 22°C
Влажность 35%
Давление 1026 hPa
Видимость 10 км и более
Нет облачности ниже 1500 м, и нет кучево-дождевой облачности

METAR: UKON 151400Z 08006MPS CAVOK 22/06 Q1026 NOSIG

Время: 04:51 (01:51 UTC)

Прогноз

Эта сводка был подготовлена 14 часа и 49 минут назад, в 11:02 UTC
Прогноз действительный с 15-го 12 UTC до 15-го 21 UTC
Ветер 10 Узел от северо-восточный с порывами до 19 Узел
Видимость 10 км и более
Нет облачности ниже 1500 м, и нет кучево-дождевой облачности

TAF: UKON 151102Z 1512/1521 05005G10MPS CAVOK

Метеонаблюдения и прогнозы для более 4000 аэропортов (сводки METAR и TAF).

Имеющиеся станции представлены на карте желтыми и красными точками.

Чтобы увидеть название станции, наведите на нее мышь.

Затем щелкните, чтобы увидеть метеонаблюдения и метеопрогнозы.

Управление картой: чтобы увеличить масштаб, щелкните зеленые кнопки с черным крестиком; чтобы уменьшить масштаб, щелкните зеленую кнопку с тире; для просмотра соседних карт щелкайте зеленые стрелки.


METAR-TAF: